Time;durP1;ratioP1;P1;durP2;ratioP2;P2;SDS_P1;SDS_P2;PMS_P1;PMS_P2;Temp;Humidity;BMP_temperature;BMP_pressure;BME280_temperature;BME280_humidity;BME280_pressure;Samples;Min_cycle;Max_cycle;Signal;HPM_P1;HPM_P2
2022/10/23 00:01:27;;;;;;;15.90;10.40;;;;;;;12.49;93.59;94377.48;1548179;89;21032;-53
2022/10/23 00:03:59;;;;;;;12.80;9.35;;;;;;;12.44;93.69;94380.25;1568647;90;21039;-51
2022/10/23 00:06:27;;;;;;;15.17;9.67;;;;;;;12.38;93.98;94382.13;1560094;90;21232;-52
2022/10/23 00:08:54;;;;;;;12.93;9.75;;;;;;;12.33;94.22;94386.13;1565616;90;21688;-52
2022/10/23 00:11:24;;;;;;;13.72;9.88;;;;;;;12.31;94.87;94385.84;1561120;89;21090;-52
2022/10/23 00:13:54;;;;;;;12.80;8.75;;;;;;;12.29;94.80;94384.16;1563579;90;21275;-53
2022/10/23 00:16:22;;;;;;;17.37;11.12;;;;;;;12.27;95.17;94383.23;1561479;90;21647;-52
2022/10/23 00:18:49;;;;;;;14.78;10.72;;;;;;;12.24;95.37;94392.45;1562501;90;21153;-52
2022/10/23 00:21:17;;;;;;;14.07;9.10;;;;;;;12.25;95.64;94391.84;1567838;90;21125;-53
2022/10/23 00:23:44;;;;;;;14.95;9.73;;;;;;;12.25;95.78;94389.84;1565315;90;21098;-52
2022/10/23 00:26:14;;;;;;;14.45;8.53;;;;;;;12.31;95.94;94387.99;1567965;89;21192;-52
2022/10/23 00:28:43;;;;;;;15.08;9.98;;;;;;;12.36;96.12;94388.73;1567020;90;21184;-52
2022/10/23 00:31:10;;;;;;;16.65;10.08;;;;;;;12.41;96.33;94392.22;1568968;90;21030;-52
2022/10/23 00:33:36;;;;;;;10.20;7.75;;;;;;;12.43;96.00;94395.27;1560990;90;22272;-51
2022/10/23 00:36:06;;;;;;;9.68;7.95;;;;;;;12.40;96.02;94394.84;1567844;90;21114;-52
2022/10/23 00:38:33;;;;;;;12.65;8.28;;;;;;;12.43;95.95;94386.25;1564035;90;21792;-53
2022/10/23 00:41:00;;;;;;;9.68;7.70;;;;;;;12.44;95.92;94392.66;1571011;90;21095;-53
2022/10/23 00:43:28;;;;;;;12.30;9.28;;;;;;;12.42;95.70;94390.98;1560596;90;21568;-53
2022/10/23 00:45:55;;;;;;;9.88;7.85;;;;;;;12.36;95.69;94386.57;1566675;89;21027;-52
2022/10/23 00:48:22;;;;;;;13.22;8.05;;;;;;;12.34;95.82;94394.55;1567848;90;21086;-52
2022/10/23 00:50:49;;;;;;;12.90;7.97;;;;;;;12.34;95.92;94399.47;1556826;91;21239;-52
2022/10/23 00:53:17;;;;;;;14.40;8.55;;;;;;;12.33;95.96;94398.55;1560658;90;20995;-53
2022/10/23 00:55:45;;;;;;;11.57;7.92;;;;;;;12.30;96.21;94400.23;1553244;90;21089;-51
2022/10/23 00:58:14;;;;;;;10.00;7.67;;;;;;;12.31;96.64;94404.55;1561861;90;21139;-53
2022/10/23 01:00:46;;;;;;;9.58;6.72;;;;;;;12.34;96.77;94406.37;1563480;90;21184;-51
2022/10/23 01:03:14;;;;;;;9.55;6.58;;;;;;;12.39;96.79;94402.97;1571207;90;21240;-53
2022/10/23 01:05:58;;;;;;;9.78;7.33;;;;;;;12.38;96.56;94411.09;1562917;90;21003;-52
2022/10/23 01:08:33;;;;;;;7.25;6.40;;;;;;;12.35;96.43;94409.88;1566005;90;21081;-53
2022/10/23 01:11:08;;;;;;;10.45;6.30;;;;;;;12.32;96.46;94414.34;1566487;89;21518;-52
2022/10/23 01:13:44;;;;;;;6.65;5.10;;;;;;;12.32;96.85;94419.08;1560351;89;21242;-52
2022/10/23 01:16:17;;;;;;;6.60;5.10;;;;;;;12.34;96.78;94420.16;1563695;90;21315;-52
2022/10/23 01:18:59;;;;;;;8.10;5.47;;;;;;;12.35;97.00;94416.77;1557322;90;21098;-52
2022/10/23 01:21:43;;;;;;;17.23;10.28;;;;;;;12.39;97.68;94408.48;1563175;90;21014;-51
2022/10/23 01:24:18;;;;;;;18.50;11.48;;;;;;;12.39;97.02;94414.59;1564943;90;21077;-52
2022/10/23 01:27:01;;;;;;;16.42;10.80;;;;;;;12.33;96.71;94422.77;1567426;90;20999;-52
2022/10/23 01:29:42;;;;;;;19.80;13.70;;;;;;;12.31;96.45;94429.37;1569146;89;21343;-52
2022/10/23 01:32:18;;;;;;;19.60;11.68;;;;;;;12.22;96.42;94429.39;1571813;89;21274;-52
2022/10/23 01:34:51;;;;;;;25.77;15.75;;;;;;;12.18;96.93;94428.02;1566708;89;21090;-53
2022/10/23 01:37:26;;;;;;;18.80;12.20;;;;;;;12.15;97.04;94428.95;1561552;90;21197;-52
2022/10/23 01:39:55;;;;;;;16.32;11.10;;;;;;;12.13;97.04;94425.30;1559265;89;21707;-52
2022/10/23 01:42:29;;;;;;;16.73;11.60;;;;;;;12.12;97.39;94432.01;1571940;89;21294;-53
2022/10/23 01:45:01;;;;;;;22.22;14.63;;;;;;;12.14;97.52;94435.09;1576130;90;21130;-52
2022/10/23 01:47:30;;;;;;;22.98;11.90;;;;;;;12.12;97.58;94438.91;1563920;90;21062;-52
2022/10/23 01:49:58;;;;;;;16.32;11.05;;;;;;;12.10;97.61;94437.23;1571007;90;21105;-51
2022/10/23 01:52:26;;;;;;;20.27;8.80;;;;;;;12.10;97.86;94442.73;1548189;91;20986;-52
2022/10/23 01:54:55;;;;;;;14.05;11.08;;;;;;;12.15;98.12;94435.84;1567171;90;22253;-51
2022/10/23 01:57:22;;;;;;;18.80;11.15;;;;;;;12.18;98.08;94445.34;1557425;89;21090;-53
2022/10/23 02:00:03;;;;;;;13.18;9.60;;;;;;;12.20;98.42;94447.02;1563909;90;21125;-52
2022/10/23 02:02:32;;;;;;;14.70;9.20;;;;;;;12.22;98.30;94444.55;1566299;90;21091;-53
2022/10/23 02:05:10;;;;;;;14.45;10.18;;;;;;;12.18;97.74;94452.84;1570123;90;20995;-53
2022/10/23 02:07:38;;;;;;;15.15;10.10;;;;;;;12.15;98.20;94457.30;1558169;89;21173;-53
2022/10/23 02:10:07;;;;;;;13.45;8.83;;;;;;;12.22;98.84;94463.08;1559990;89;21028;-53
2022/10/23 02:12:50;;;;;;;10.90;9.03;;;;;;;12.28;98.99;94468.14;1568646;90;21207;-54
2022/10/23 02:15:59;;;;;;;14.33;8.70;;;;;;;12.29;98.16;94470.42;1567113;90;21235;-52
2022/10/23 02:18:41;;;;;;;15.88;9.43;;;;;;;12.27;98.17;94478.39;1565822;90;21107;-53
2022/10/23 02:21:16;;;;;;;13.85;8.13;;;;;;;12.31;97.81;94479.02;1563426;89;21286;-51
2022/10/23 02:23:58;;;;;;;12.33;7.70;;;;;;;12.30;97.94;94487.12;1570903;90;21010;-52
2022/10/23 02:26:36;;;;;;;8.60;6.95;;;;;;;12.27;97.44;94490.80;1572472;90;21045;-52
2022/10/23 02:29:15;;;;;;;10.60;7.12;;;;;;;12.19;97.11;94490.21;1548356;91;21629;-53
2022/10/23 02:31:43;;;;;;;13.08;7.53;;;;;;;12.16;97.77;94493.30;1571911;90;21043;-52
2022/10/23 02:34:11;;;;;;;11.20;6.45;;;;;;;12.21;98.00;94500.95;1571879;90;21032;-51
2022/10/23 02:36:38;;;;;;;12.18;7.65;;;;;;;12.20;97.57;94503.55;1556593;90;21220;-52
2022/10/23 02:39:05;;;;;;;11.43;7.53;;;;;;;12.15;97.47;94506.94;1569005;89;21059;-52
2022/10/23 02:41:47;;;;;;;9.40;6.33;;;;;;;12.16;98.02;94512.61;1561171;90;21062;-52
2022/10/23 02:44:29;;;;;;;13.58;7.55;;;;;;;12.17;98.04;94517.49;1558575;90;21046;-53
2022/10/23 02:47:22;;;;;;;12.60;8.45;;;;;;;12.20;98.00;94519.32;1557950;90;21295;-51
2022/10/23 02:50:23;;;;;;;14.53;8.23;;;;;;;12.20;97.94;94517.34;1568336;89;21567;-52
2022/10/23 02:53:13;;;;;;;10.70;7.67;;;;;;;12.21;98.24;94526.36;1566860;90;21582;-51
2022/10/23 02:56:13;;;;;;;9.50;7.05;;;;;;;12.21;98.62;94524.39;1561944;90;21131;-53
2022/10/23 02:59:11;;;;;;;8.70;6.50;;;;;;;12.21;98.20;94527.74;1566581;90;21073;-53
2022/10/23 03:01:52;;;;;;;7.65;5.92;;;;;;;12.19;98.42;94528.22;1566340;89;22092;-53
2022/10/23 03:04:21;;;;;;;8.25;7.03;;;;;;;12.16;98.12;94529.16;1566091;90;21006;-52
2022/10/23 03:06:49;;;;;;;7.72;6.40;;;;;;;12.08;98.13;94538.20;1545876;91;20971;-52
2022/10/23 03:09:17;;;;;;;6.20;5.60;;;;;;;12.06;98.50;94531.76;1566852;90;21086;-51
2022/10/23 03:11:44;;;;;;;8.98;7.30;;;;;;;12.08;98.61;94532.06;1564691;90;20996;-51
2022/10/23 03:14:11;;;;;;;9.53;8.05;;;;;;;12.08;98.43;94529.30;1560133;90;21251;-53
2022/10/23 03:16:38;;;;;;;7.45;6.58;;;;;;;12.09;98.83;94533.59;1568955;90;21184;-52
2022/10/23 03:19:05;;;;;;;14.95;9.53;;;;;;;12.03;98.31;94535.44;1568534;90;20998;-52
2022/10/23 03:21:32;;;;;;;16.97;10.93;;;;;;;11.97;98.21;94537.30;1571383;89;21557;-53
2022/10/23 03:23:59;;;;;;;16.62;12.45;;;;;;;11.89;97.77;94536.69;1567282;90;21106;-52
2022/10/23 03:26:28;;;;;;;21.52;13.55;;;;;;;11.81;97.60;94550.01;1563311;90;21188;-52
2022/10/23 03:28:55;;;;;;;20.52;13.70;;;;;;;11.76;97.87;94554.76;1571761;89;21003;-52
2022/10/23 03:31:22;;;;;;;13.85;11.43;;;;;;;11.70;97.95;94567.59;1569828;90;21051;-53
2022/10/23 03:33:50;;;;;;;33.70;21.60;;;;;;;11.66;98.75;94561.48;1560834;89;21098;-52
2022/10/23 03:36:19;;;;;;;12.80;9.53;;;;;;;11.64;98.99;94567.28;1562974;90;21090;-54
2022/10/23 03:38:46;;;;;;;25.17;16.85;;;;;;;11.63;98.86;94574.80;1562604;90;21283;-53
2022/10/23 03:41:14;;;;;;;13.70;10.90;;;;;;;11.59;99.31;94568.67;1567505;89;20999;-55
2022/10/23 03:43:41;;;;;;;18.80;13.68;;;;;;;11.53;99.33;94564.95;1564423;90;21062;-53
2022/10/23 03:46:11;;;;;;;15.98;9.55;;;;;;;11.52;99.88;94569.55;1563561;90;21077;-53
2022/10/23 03:48:38;;;;;;;12.60;8.28;;;;;;;11.54;99.64;94564.34;1565277;90;20994;-53
2022/10/23 03:51:05;;;;;;;10.13;8.20;;;;;;;11.53;99.35;94569.08;1552186;91;22032;-52
2022/10/23 03:53:33;;;;;;;18.15;9.78;;;;;;;11.52;99.51;94576.44;1568660;90;21042;-54
2022/10/23 03:56:03;;;;;;;15.32;8.93;;;;;;;11.53;99.77;94569.70;1560277;91;21051;-52
2022/10/23 03:58:30;;;;;;;18.07;9.55;;;;;;;11.55;99.95;94573.52;1571378;90;21069;-52
2022/10/23 04:00:57;;;;;;;18.80;9.78;;;;;;;11.57;99.67;94572.47;1560687;90;21014;-53
2022/10/23 04:03:24;;;;;;;15.93;8.25;;;;;;;11.60;99.15;94574.34;1565510;90;21210;-52
2022/10/23 04:05:52;;;;;;;14.40;8.08;;;;;;;11.60;99.25;94572.96;1563838;90;21022;-52
2022/10/23 04:08:22;;;;;;;27.37;13.70;;;;;;;11.63;99.34;94576.17;1558806;90;21118;-55
2022/10/23 04:10:53;;;;;;;24.80;11.78;;;;;;;11.63;98.81;94573.42;1562221;89;21164;-53
2022/10/23 04:13:22;;;;;;;17.25;9.80;;;;;;;11.64;99.02;94564.53;1567242;90;21066;-52
2022/10/23 04:15:50;;;;;;;27.30;9.73;;;;;;;11.66;98.34;94567.59;1552957;91;21257;-52
2022/10/23 04:18:18;;;;;;;15.25;6.83;;;;;;;11.61;97.86;94563.47;1570151;90;20987;-52
2022/10/23 04:20:48;;;;;;;12.10;6.72;;;;;;;11.58;97.80;94567.14;1566716;89;21014;-52
2022/10/23 04:23:15;;;;;;;8.60;5.70;;;;;;;11.48;97.37;94579.33;1568492;90;21593;-53
2022/10/23 04:25:42;;;;;;;10.63;6.65;;;;;;;11.42;97.35;94590.80;1561481;90;21170;-53
2022/10/23 04:28:09;;;;;;;12.13;8.08;;;;;;;11.41;97.66;94585.74;1567567;89;21163;-55
2022/10/23 04:30:38;;;;;;;16.80;10.65;;;;;;;11.46;98.29;94596.16;1566655;89;21125;-53
2022/10/23 04:33:05;;;;;;;15.05;10.15;;;;;;;11.48;98.21;94597.23;1548891;90;21890;-53
2022/10/23 04:35:33;;;;;;;18.25;11.18;;;;;;;11.46;97.99;94594.17;1569966;90;21158;-52
2022/10/23 04:38:00;;;;;;;15.70;9.53;;;;;;;11.45;98.59;94596.78;1566225;90;21111;-54
2022/10/23 04:40:27;;;;;;;17.10;9.20;;;;;;;11.52;98.62;94598.48;1566825;90;21267;-53
2022/10/23 04:42:54;;;;;;;14.78;9.95;;;;;;;11.56;98.64;94599.88;1549956;89;21031;-53
2022/10/23 04:45:21;;;;;;;10.70;8.15;;;;;;;11.60;98.66;94598.36;1568580;90;21075;-52
2022/10/23 04:47:48;;;;;;;13.83;7.08;;;;;;;11.58;98.37;94595.30;1570141;90;21093;-54
2022/10/23 04:50:16;;;;;;;15.15;7.00;;;;;;;11.59;98.38;94594.85;1566206;90;21047;-53
2022/10/23 04:53:01;;;;;;;11.57;7.30;;;;;;;11.59;98.18;94598.98;1566747;90;21885;-53
2022/10/23 04:55:54;;;;;;;11.90;7.60;;;;;;;11.63;98.36;94608.46;1558104;90;21133;-53
2022/10/23 04:58:24;;;;;;;11.78;6.80;;;;;;;11.66;98.61;94609.70;1566472;90;21174;-54
2022/10/23 05:00:51;;;;;;;5.83;5.12;;;;;;;11.71;98.82;94617.36;1563546;90;21126;-54
2022/10/23 05:03:21;;;;;;;8.78;4.83;;;;;;;11.76;98.48;94612.64;1562789;90;21050;-52
2022/10/23 05:05:48;;;;;;;7.62;5.78;;;;;;;11.78;98.31;94624.56;1557401;90;21269;-54
2022/10/23 05:08:21;;;;;;;10.20;6.60;;;;;;;11.84;99.07;94625.48;1549814;90;21136;-54
2022/10/23 05:11:04;;;;;;;10.40;6.92;;;;;;;11.92;99.14;94627.48;1572157;89;20995;-55
2022/10/23 05:13:34;;;;;;;10.32;6.60;;;;;;;11.94;98.48;94631.92;1566183;90;21211;-52
2022/10/23 05:16:02;;;;;;;10.23;7.25;;;;;;;11.92;97.84;94640.52;1538992;91;21044;-54
2022/10/23 05:18:38;;;;;;;12.55;6.80;;;;;;;11.88;97.84;94639.27;1569436;90;21328;-53
2022/10/23 05:21:19;;;;;;;22.32;11.20;;;;;;;11.90;97.96;94646.48;1562988;90;21114;-54
2022/10/23 05:23:48;;;;;;;14.23;8.80;;;;;;;11.87;97.84;94643.89;1552741;90;21144;-52
2022/10/23 05:26:16;;;;;;;13.72;9.98;;;;;;;11.80;97.85;94650.45;1561357;90;21053;-53
2022/10/23 05:28:44;;;;;;;13.05;11.25;;;;;;;11.77;98.12;94645.86;1562685;90;21107;-53
2022/10/23 05:31:13;;;;;;;14.83;10.58;;;;;;;11.79;98.74;94661.33;1558085;90;21290;-53
2022/10/23 05:33:42;;;;;;;15.63;11.18;;;;;;;11.81;98.60;94663.02;1560538;89;21061;-53
2022/10/23 05:36:11;;;;;;;17.12;12.15;;;;;;;11.80;98.65;94661.48;1560771;90;21143;-54
2022/10/23 05:38:40;;;;;;;18.07;11.03;;;;;;;11.73;98.20;94665.89;1566368;90;21023;-53
2022/10/23 05:41:17;;;;;;;19.02;10.53;;;;;;;11.68;98.29;94671.26;1568576;90;21151;-54
2022/10/23 05:43:45;;;;;;;15.35;12.18;;;;;;;11.65;98.59;94683.95;1568320;90;21191;-52
2022/10/23 05:46:16;;;;;;;19.00;12.47;;;;;;;11.63;98.92;94674.59;1554715;89;20991;-52
2022/10/23 05:48:50;;;;;;;14.87;10.93;;;;;;;11.62;99.31;94680.73;1562689;89;21154;-54
2022/10/23 05:51:28;;;;;;;16.05;11.33;;;;;;;11.63;99.22;94688.37;1565078;90;21090;-54
2022/10/23 05:54:05;;;;;;;19.37;11.70;;;;;;;11.60;99.36;94691.44;1570189;90;21089;-52
2022/10/23 05:56:40;;;;;;;16.23;12.07;;;;;;;11.58;99.36;94693.89;1569194;90;21931;-53
2022/10/23 05:59:25;;;;;;;16.73;11.80;;;;;;;11.61;99.84;94688.06;1562015;90;21368;-53
2022/10/23 06:01:54;;;;;;;18.25;11.45;;;;;;;11.64;100.00;94693.44;1562383;90;21125;-53
2022/10/23 06:04:26;;;;;;;15.50;11.78;;;;;;;11.73;100.00;94692.70;1559150;90;21110;-53
2022/10/23 06:07:11;;;;;;;13.30;10.23;;;;;;;11.77;100.00;94693.31;1560539;89;20990;-54
2022/10/23 06:09:39;;;;;;;16.05;11.35;;;;;;;11.79;100.00;94702.67;1553474;91;21291;-53
2022/10/23 06:12:06;;;;;;;14.55;11.97;;;;;;;11.81;100.00;94705.73;1569505;90;21490;-55
2022/10/23 06:14:35;;;;;;;22.02;15.55;;;;;;;11.87;100.00;94714.93;1559110;90;21286;-52
2022/10/23 06:17:02;;;;;;;23.52;15.98;;;;;;;11.96;100.00;94717.72;1564740;90;21010;-52
2022/10/23 06:19:30;;;;;;;24.27;16.50;;;;;;;12.01;100.00;94724.00;1570828;90;21074;-53
2022/10/23 06:21:58;;;;;;;28.05;17.90;;;;;;;12.00;100.00;94725.23;1561163;89;21581;-53
2022/10/23 06:24:27;;;;;;;48.35;31.90;;;;;;;12.01;100.00;94733.66;1569256;90;21006;-54
2022/10/23 06:26:55;;;;;;;67.10;39.67;;;;;;;12.00;100.00;94734.88;1563140;90;21701;-54
2022/10/23 06:29:24;;;;;;;92.22;48.20;;;;;;;11.99;100.00;94740.84;1565806;90;21121;-53
2022/10/23 06:31:51;;;;;;;72.60;40.35;;;;;;;12.01;100.00;94737.80;1550384;91;21115;-52
2022/10/23 06:34:19;;;;;;;59.75;38.13;;;;;;;12.06;100.00;94733.05;1560040;90;21614;-52
2022/10/23 06:36:46;;;;;;;62.85;39.23;;;;;;;12.09;100.00;94734.89;1557924;90;21586;-55
2022/10/23 06:39:15;;;;;;;50.12;33.55;;;;;;;12.11;100.00;94735.82;1549312;91;21174;-55
2022/10/23 06:41:47;;;;;;;49.73;31.70;;;;;;;12.15;100.00;94744.11;1550268;90;21577;-53
2022/10/23 06:44:16;;;;;;;42.23;29.32;;;;;;;12.21;100.00;94747.01;1563472;90;21046;-53
2022/10/23 06:46:46;;;;;;;35.00;25.20;;;;;;;12.27;100.00;94755.61;1565494;90;21836;-53
2022/10/23 06:49:27;;;;;;;38.75;25.35;;;;;;;12.36;100.00;94751.50;1558949;90;20999;-52
2022/10/23 06:51:56;;;;;;;46.70;27.25;;;;;;;12.45;100.00;94749.36;1569050;90;21112;-54
2022/10/23 06:54:22;;;;;;;58.02;34.40;;;;;;;12.50;100.00;94758.40;1567604;90;21321;-53
2022/10/23 06:56:49;;;;;;;82.02;40.67;;;;;;;12.55;100.00;94763.45;1567227;89;21038;-53
2022/10/23 06:59:20;;;;;;;72.35;42.40;;;;;;;12.56;100.00;94762.22;1555779;91;21981;-55
2022/10/23 07:01:49;;;;;;;56.77;34.48;;;;;;;12.58;100.00;94764.54;1568724;90;21022;-54
2022/10/23 07:04:15;;;;;;;53.50;32.95;;;;;;;12.62;100.00;94761.79;1564936;90;21029;-53
2022/10/23 07:06:43;;;;;;;49.95;31.55;;;;;;;12.70;100.00;94766.39;1558915;90;21055;-53
2022/10/23 07:09:10;;;;;;;39.60;27.45;;;;;;;12.75;100.00;94758.24;1568491;90;21126;-53
2022/10/23 07:11:51;;;;;;;42.80;27.35;;;;;;;12.81;99.89;94773.59;1566708;90;21247;-53
2022/10/23 07:14:21;;;;;;;36.98;27.32;;;;;;;12.86;99.77;94771.61;1562105;90;21592;-52
2022/10/23 07:16:49;;;;;;;42.27;26.85;;;;;;;12.95;100.00;94770.24;1570803;90;21495;-53
2022/10/23 07:19:18;;;;;;;37.35;24.67;;;;;;;13.00;99.62;94777.30;1566457;90;21042;-53
2022/10/23 07:21:47;;;;;;;34.10;24.05;;;;;;;13.04;99.18;94775.77;1561473;90;21006;-55
2022/10/23 07:24:29;;;;;;;38.10;29.60;;;;;;;13.09;99.22;94783.43;1565645;89;21574;-53
2022/10/23 07:26:57;;;;;;;44.10;31.93;;;;;;;13.13;99.13;94787.58;1545120;90;21019;-54
2022/10/23 07:29:24;;;;;;;42.05;30.20;;;;;;;13.18;99.30;94776.50;1567543;90;20996;-53
2022/10/23 07:31:52;;;;;;;36.20;25.92;;;;;;;13.21;98.90;94782.48;1569509;90;21091;-52
2022/10/23 07:34:25;;;;;;;27.17;22.17;;;;;;;13.24;98.68;94785.09;1565863;90;20990;-53
2022/10/23 07:36:55;;;;;;;27.77;18.35;;;;;;;13.32;99.12;94786.92;1568039;89;21972;-52
2022/10/23 07:39:22;;;;;;;28.20;21.40;;;;;;;13.46;99.47;94794.58;1564072;90;21034;-53
2022/10/23 07:41:53;;;;;;;32.53;24.05;;;;;;;13.58;98.94;94787.48;1565882;90;21105;-53
2022/10/23 07:44:20;;;;;;;34.63;26.35;;;;;;;13.65;97.76;94789.16;1545469;91;21130;-53
2022/10/23 07:46:48;;;;;;;41.70;26.82;;;;;;;13.65;97.39;94791.92;1542944;91;21802;-53
2022/10/23 07:49:15;;;;;;;32.80;26.17;;;;;;;13.68;97.09;94796.51;1566386;90;21398;-53
2022/10/23 07:51:43;;;;;;;31.90;23.90;;;;;;;13.71;96.94;94795.58;1566073;89;21109;-54
2022/10/23 07:54:11;;;;;;;33.42;22.00;;;;;;;13.72;96.86;94795.13;1564451;90;21058;-56
2022/10/23 07:56:40;;;;;;;27.07;19.20;;;;;;;13.71;96.94;94788.66;1565345;90;21224;-53
2022/10/23 07:59:12;;;;;;;27.10;17.73;;;;;;;13.73;97.04;94796.65;1555356;90;21167;-53
2022/10/23 08:01:42;;;;;;;27.42;18.75;;;;;;;13.77;96.77;94797.25;1553686;89;21054;-54
2022/10/23 08:04:10;;;;;;;26.07;20.17;;;;;;;13.76;96.62;94799.08;1527551;91;21542;-53
2022/10/23 08:06:39;;;;;;;27.00;20.43;;;;;;;13.73;96.62;94791.12;1570178;90;21137;-52
2022/10/23 08:09:07;;;;;;;20.15;15.18;;;;;;;13.72;96.70;94792.95;1572196;90;21209;-53
2022/10/23 08:11:36;;;;;;;18.62;13.28;;;;;;;13.75;97.20;94804.47;1571103;90;21454;-53
2022/10/23 08:14:05;;;;;;;14.50;10.80;;;;;;;13.80;97.30;94801.09;1566711;90;21359;-53
2022/10/23 08:16:36;;;;;;;26.50;18.65;;;;;;;13.84;97.31;94809.98;1543021;90;21188;-53
2022/10/23 08:19:04;;;;;;;26.00;19.25;;;;;;;13.84;97.11;94805.83;1561246;90;21102;-53
2022/10/23 08:21:33;;;;;;;30.05;22.42;;;;;;;13.81;96.69;94807.52;1574352;89;21098;-56
2022/10/23 08:24:02;;;;;;;19.12;14.50;;;;;;;13.82;96.53;94813.83;1567219;89;21014;-54
2022/10/23 08:26:31;;;;;;;11.95;9.73;;;;;;;13.86;96.40;94811.66;1552777;89;21086;-56
2022/10/23 08:28:59;;;;;;;13.18;10.95;;;;;;;13.92;96.63;94823.02;1551888;90;20963;-55
2022/10/23 08:31:26;;;;;;;17.32;10.48;;;;;;;13.93;96.75;94816.24;1562822;89;21018;-54
2022/10/23 08:33:58;;;;;;;13.95;10.82;;;;;;;13.98;97.34;94823.15;1563455;89;21095;-53
2022/10/23 08:36:27;;;;;;;72.27;34.67;;;;;;;14.03;97.14;94830.17;1571301;90;21010;-53
2022/10/23 08:38:55;;;;;;;119.90;50.78;;;;;;;14.08;97.61;94823.25;1566346;90;21095;-54
2022/10/23 08:41:30;;;;;;;74.25;34.30;;;;;;;14.24;97.79;94825.67;1556582;90;21043;-53
2022/10/23 08:44:30;;;;;;;57.75;31.30;;;;;;;14.38;97.39;94827.77;1561677;89;21097;-53
2022/10/23 08:47:05;;;;;;;65.90;33.40;;;;;;;14.44;96.88;94833.58;1574766;89;21001;-54
2022/10/23 08:49:54;;;;;;;71.28;36.83;;;;;;;14.64;97.75;94835.90;1570304;89;21172;-55
2022/10/23 08:52:31;;;;;;;83.87;43.50;;;;;;;14.98;97.54;94841.55;1568217;90;21178;-54
2022/10/23 08:55:07;;;;;;;47.98;27.75;;;;;;;15.20;96.53;94840.59;1555307;90;21180;-53
2022/10/23 08:57:42;;;;;;;20.27;13.38;;;;;;;15.36;94.52;94839.55;1583645;90;20997;-53
2022/10/23 09:00:11;;;;;;;14.98;9.45;;;;;;;15.48;91.58;94843.30;1556644;89;21462;-56
2022/10/23 09:02:49;;;;;;;12.50;8.33;;;;;;;15.55;89.10;94842.30;1556948;90;21157;-53
2022/10/23 09:05:38;;;;;;;13.22;11.03;;;;;;;15.69;86.72;94847.74;1544226;91;21336;-56
2022/10/23 09:08:40;;;;;;;11.08;7.28;;;;;;;15.91;85.69;94841.94;1556823;90;20997;-54
2022/10/23 09:11:21;;;;;;;8.65;6.12;;;;;;;16.30;83.57;94848.88;1570211;90;21278;-55
2022/10/23 09:13:57;;;;;;;;;;;;;;;16.88;79.91;94843.97;1577937;90;21452;-53
2022/10/23 09:16:33;;;;;;;8.53;5.25;;;;;;;17.14;75.24;94844.05;1578182;90;20157;-53
2022/10/23 09:19:01;;;;;;;9.03;7.15;;;;;;;17.36;74.29;94852.69;1573119;89;21857;-54
2022/10/23 09:21:29;;;;;;;7.53;5.83;;;;;;;17.66;75.59;94848.48;1556543;90;20994;-54
2022/10/23 09:23:57;;;;;;;10.13;7.78;;;;;;;17.96;74.66;94851.95;1553686;91;21563;-55
2022/10/23 09:26:24;;;;;;;9.80;7.12;;;;;;;18.18;73.81;94850.00;1575443;90;21109;-54
2022/10/23 09:28:58;;;;;;;12.05;8.30;;;;;;;18.26;71.76;94844.89;1575662;90;21552;-54
2022/10/23 09:31:25;;;;;;;7.65;6.30;;;;;;;18.36;70.85;94844.23;1582069;90;21865;-55
2022/10/23 09:34:00;;;;;;;6.85;5.22;;;;;;;18.51;69.18;94841.30;1559613;90;20997;-54
2022/10/23 09:36:29;;;;;;;5.50;4.90;;;;;;;18.56;69.11;94837.78;1569743;89;21509;-55
2022/10/23 09:38:58;;;;;;;5.90;4.62;;;;;;;18.58;67.13;94833.25;1559067;90;21028;-54
2022/10/23 09:41:37;;;;;;;4.05;3.55;;;;;;;18.93;66.56;94830.16;1570996;89;21001;-54
2022/10/23 09:44:29;;;;;;;4.40;3.75;;;;;;;19.35;63.38;94826.70;1577252;90;21180;-53
2022/10/23 09:47:07;;;;;;;3.37;3.07;;;;;;;19.58;60.43;94832.48;1557848;90;21717;-54
2022/10/23 09:49:37;;;;;;;5.08;3.90;;;;;;;19.44;60.25;94829.29;1544953;91;21350;-54
2022/10/23 09:52:13;;;;;;;45.70;41.02;;;;;;;19.17;59.85;94828.53;1509576;92;21564;-54
2022/10/23 09:54:56;;;;;;;21.73;19.55;;;;;;;18.95;58.94;94832.59;1529626;92;21118;-55
2022/10/23 09:57:31;;;;;;;40.45;36.15;;;;;;;18.71;59.11;94832.20;1530833;93;21268;-54
2022/10/23 10:00:03;;;;;;;30.75;26.02;;;;;;;18.53;60.39;94834.59;1527226;92;21008;-54
2022/10/23 10:02:34;;;;;;;14.55;13.05;;;;;;;18.38;61.43;94834.75;1523698;92;21051;-54
2022/10/23 10:05:30;;;;;;;7.80;7.00;;;;;;;18.47;60.49;94824.05;1519057;92;21083;-53
2022/10/23 10:08:21;;;;;;;4.17;2.37;;;;;;;18.62;59.29;94826.81;1465836;95;21162;-53
2022/10/23 10:11:19;;;;;;;3.10;2.08;;;;;;;18.68;58.31;94828.98;1498774;93;22029;-53
2022/10/23 10:14:11;;;;;;;6.85;2.87;;;;;;;18.51;57.63;94823.97;1544573;91;21043;-54
2022/10/23 10:17:05;;;;;;;5.90;2.25;;;;;;;18.25;59.47;94832.97;1542554;90;21198;-55
2022/10/23 10:19:51;;;;;;;12.58;7.92;;;;;;;18.13;59.02;94829.95;1543640;91;21077;-54
2022/10/23 10:22:40;;;;;;;11.40;4.22;;;;;;;18.33;58.99;94834.09;1544917;91;21094;-54
2022/10/23 10:25:30;;;;;;;15.15;3.00;;;;;;;19.22;56.46;94820.81;1542396;91;21361;-54
2022/10/23 10:28:27;;;;;;;11.43;2.55;;;;;;;20.10;54.06;94821.72;1584629;89;21055;-55
2022/10/23 10:31:27;;;;;;;2.90;2.00;;;;;;;20.83;52.68;94810.73;1579974;89;21004;-54
2022/10/23 10:34:29;;;;;;;25.45;3.85;;;;;;;21.84;49.21;94812.03;1582980;89;21023;-56
2022/10/23 10:37:01;;;;;;;20.80;10.72;;;;;;;22.42;47.10;94812.77;1586980;90;21054;-55
2022/10/23 10:39:59;;;;;;;9.48;3.33;;;;;;;22.83;45.77;94807.17;1574369;89;21220;-54
2022/10/23 10:43:20;;;;;;;5.80;4.70;;;;;;;23.46;44.69;94803.32;1576553;89;21084;-55
2022/10/23 10:45:50;;;;;;;3.37;3.08;;;;;;;23.78;43.05;94800.59;1586511;90;21527;-54
2022/10/23 10:48:53;;;;;;;11.63;2.55;;;;;;;23.72;42.31;94795.05;1578683;89;21252;-55
2022/10/23 10:51:46;;;;;;;5.20;2.50;;;;;;;23.07;43.50;94791.76;1589672;90;21019;-53
2022/10/23 10:54:53;;;;;;;12.05;3.05;;;;;;;22.65;44.32;94798.04;1585117;89;21272;-55
2022/10/23 10:57:35;;;;;;;5.40;3.12;;;;;;;22.13;44.70;94788.27;1574653;89;21531;-54
2022/10/23 11:00:20;;;;;;;5.42;3.33;;;;;;;21.36;46.20;94790.11;1566649;89;20994;-54
2022/10/23 11:03:01;;;;;;;7.25;3.10;;;;;;;20.93;47.02;94786.19;1578358;89;20987;-54
2022/10/23 11:05:39;;;;;;;6.37;2.75;;;;;;;20.60;46.94;94786.88;1579918;90;21155;-54
2022/10/23 11:08:26;;;;;;;4.50;3.27;;;;;;;20.58;47.20;94778.25;1580114;89;21640;-54
2022/10/23 11:10:54;;;;;;;3.75;2.35;;;;;;;21.30;46.24;94780.22;1572424;89;21061;-56
2022/10/23 11:13:39;;;;;;;6.33;3.12;;;;;;;22.07;44.36;94784.10;1587039;89;21030;-54
2022/10/23 11:16:30;;;;;;;5.70;2.77;;;;;;;21.95;44.19;94782.53;1587192;88;21608;-55
2022/10/23 11:19:28;;;;;;;3.12;2.15;;;;;;;21.42;44.96;94790.06;1570585;90;21548;-56
2022/10/23 11:22:29;;;;;;;3.02;2.60;;;;;;;20.89;45.79;94782.16;1588669;90;21521;-56
2022/10/23 11:25:28;;;;;;;2.72;2.52;;;;;;;20.56;46.29;94791.33;1588084;89;21171;-57
2022/10/23 11:28:24;;;;;;;15.83;3.75;;;;;;;20.66;46.20;94798.81;1586212;89;21188;-56
2022/10/23 11:31:04;;;;;;;3.05;2.25;;;;;;;21.44;45.46;94789.69;1579791;89;21038;-55
2022/10/23 11:33:56;;;;;;;20.43;4.00;;;;;;;22.20;43.10;94794.08;1588992;89;21493;-54
2022/10/23 11:36:45;;;;;;;5.10;2.83;;;;;;;22.31;43.64;94796.77;1587183;89;21264;-54
2022/10/23 11:39:25;;;;;;;2.77;2.17;;;;;;;22.56;43.37;94794.19;1588299;89;21109;-56
2022/10/23 11:42:05;;;;;;;21.70;3.17;;;;;;;23.27;41.36;94792.70;1587153;89;21063;-55
2022/10/23 11:44:48;;;;;;;3.30;2.67;;;;;;;23.49;40.42;94787.44;1587370;89;21497;-55
2022/10/23 11:47:35;;;;;;;2.95;2.62;;;;;;;23.18;41.13;94793.05;1590030;89;21061;-55
2022/10/23 11:50:14;;;;;;;13.38;3.20;;;;;;;22.91;41.42;94803.92;1586227;89;21324;-54
2022/10/23 11:53:09;;;;;;;3.95;2.90;;;;;;;22.97;41.72;94799.62;1543797;92;21050;-54
2022/10/23 11:55:33;;;;;;;5.22;3.10;;;;;;;23.07;41.10;94810.63;1537254;92;21492;-55